sensor_id;sensor_type;location;lat;lon;timestamp;pressure;altitude;pressure_sealevel;temperature;humidity
21760;BME280;11041;50.854;20.580;2023-02-19T00:01:45;98329.44;;;2.85;98.08
21760;BME280;11041;50.854;20.580;2023-02-19T00:04:18;98321.31;;;2.85;96.73
21760;BME280;11041;50.854;20.580;2023-02-19T00:06:46;98320.78;;;2.72;96.70
21760;BME280;11041;50.854;20.580;2023-02-19T00:09:16;98324.84;;;2.80;97.00
21760;BME280;11041;50.854;20.580;2023-02-19T00:11:44;98317.78;;;2.74;96.23
21760;BME280;11041;50.854;20.580;2023-02-19T00:14:17;98329.47;;;2.80;96.18
21760;BME280;11041;50.854;20.580;2023-02-19T00:16:45;98317.78;;;2.69;96.40
21760;BME280;11041;50.854;20.580;2023-02-19T00:19:19;98324.84;;;2.75;95.98
21760;BME280;11041;50.854;20.580;2023-02-19T00:21:50;98324.28;;;2.78;95.31
21760;BME280;11041;50.854;20.580;2023-02-19T00:24:18;98327.84;;;2.73;95.45
21760;BME280;11041;50.854;20.580;2023-02-19T00:26:46;98326.22;;;2.72;95.07
21760;BME280;11041;50.854;20.580;2023-02-19T00:29:20;98328.94;;;2.67;95.61
21760;BME280;11041;50.854;20.580;2023-02-19T00:31:47;98338.97;;;2.72;95.85
21760;BME280;11041;50.854;20.580;2023-02-19T00:34:14;98343.31;;;2.63;95.45
21760;BME280;11041;50.854;20.580;2023-02-19T00:36:42;98337.06;;;2.57;96.59
21760;BME280;11041;50.854;20.580;2023-02-19T00:39:13;98324.06;;;2.54;96.80
21760;BME280;11041;50.854;20.580;2023-02-19T00:41:40;98343.59;;;2.61;96.46
21760;BME280;11041;50.854;20.580;2023-02-19T00:44:09;98337.91;;;2.63;96.43
21760;BME280;11041;50.854;20.580;2023-02-19T00:46:43;98321.63;;;2.58;96.66
21760;BME280;11041;50.854;20.580;2023-02-19T00:49:23;98321.88;;;2.66;96.78
21760;BME280;11041;50.854;20.580;2023-02-19T00:51:51;98343.84;;;2.70;96.43
21760;BME280;11041;50.854;20.580;2023-02-19T00:54:19;98339.50;;;2.69;96.89
21760;BME280;11041;50.854;20.580;2023-02-19T00:56:48;98337.09;;;2.67;96.98
21760;BME280;11041;50.854;20.580;2023-02-19T00:59:15;98334.91;;;2.74;96.92
21760;BME280;11041;50.854;20.580;2023-02-19T01:01:42;98349.81;;;2.77;96.96
21760;BME280;11041;50.854;20.580;2023-02-19T01:04:09;98337.59;;;2.80;96.59
21760;BME280;11041;50.854;20.580;2023-02-19T01:06:36;98323.78;;;2.71;95.91
21760;BME280;11041;50.854;20.580;2023-02-19T01:09:04;98324.28;;;2.78;96.05
21760;BME280;11041;50.854;20.580;2023-02-19T01:11:33;98304.22;;;2.69;96.41
21760;BME280;11041;50.854;20.580;2023-02-19T01:14:00;98322.66;;;2.82;96.88
21760;BME280;11041;50.854;20.580;2023-02-19T01:16:28;98327.28;;;2.87;96.57
21760;BME280;11041;50.854;20.580;2023-02-19T01:18:56;98319.13;;;2.87;95.86
21760;BME280;11041;50.854;20.580;2023-02-19T01:21:26;98314.78;;;2.81;96.26
21760;BME280;11041;50.854;20.580;2023-02-19T01:23:57;98315.91;;;2.80;96.57
21760;BME280;11041;50.854;20.580;2023-02-19T01:26:28;98326.47;;;2.86;96.64
21760;BME280;11041;50.854;20.580;2023-02-19T01:28:55;98322.38;;;2.84;96.58
21760;BME280;11041;50.854;20.580;2023-02-19T01:31:23;98315.84;;;2.90;96.12
21760;BME280;11041;50.854;20.580;2023-02-19T01:33:57;98321.28;;;2.90;96.10
21760;BME280;11041;50.854;20.580;2023-02-19T01:36:26;98320.47;;;2.94;95.69
21760;BME280;11041;50.854;20.580;2023-02-19T01:38:53;98310.97;;;2.92;96.33
21760;BME280;11041;50.854;20.580;2023-02-19T01:41:24;98303.69;;;2.82;96.09
21760;BME280;11041;50.854;20.580;2023-02-19T01:44:04;98314.25;;;2.89;96.40
21760;BME280;11041;50.854;20.580;2023-02-19T01:46:44;98306.09;;;2.89;96.49
21760;BME280;11041;50.854;20.580;2023-02-19T01:52:00;98305.81;;;2.90;96.40
21760;BME280;11041;50.854;20.580;2023-02-19T01:54:34;98310.16;;;2.96;96.23
21760;BME280;11041;50.854;20.580;2023-02-19T01:57:07;98303.41;;;2.89;96.33
21760;BME280;11041;50.854;20.580;2023-02-19T01:59:37;98296.06;;;2.84;96.33
21760;BME280;11041;50.854;20.580;2023-02-19T02:02:04;98303.38;;;2.84;96.23
21760;BME280;11041;50.854;20.580;2023-02-19T02:04:32;98312.88;;;2.81;96.55
21760;BME280;11041;50.854;20.580;2023-02-19T02:07:02;98312.88;;;2.81;97.02
21760;BME280;11041;50.854;20.580;2023-02-19T02:09:51;98303.41;;;2.73;97.30
21760;BME280;11041;50.854;20.580;2023-02-19T02:12:37;98314.56;;;2.72;97.34
21760;BME280;11041;50.854;20.580;2023-02-19T02:15:04;98303.69;;;2.67;97.31
21760;BME280;11041;50.854;20.580;2023-02-19T02:17:53;98297.19;;;2.68;97.54
21760;BME280;11041;50.854;20.580;2023-02-19T02:23:50;98301.25;;;2.70;97.05
21760;BME280;11041;50.854;20.580;2023-02-19T02:32:12;98267.66;;;2.56;97.19
21760;BME280;11041;50.854;20.580;2023-02-19T02:34:55;98271.72;;;2.53;97.29
21760;BME280;11041;50.854;20.580;2023-02-19T02:37:27;98263.06;;;2.51;97.51
21760;BME280;11041;50.854;20.580;2023-02-19T02:39:58;98257.59;;;2.56;97.72
21760;BME280;11041;50.854;20.580;2023-02-19T02:42:25;98269.25;;;2.72;97.38
21760;BME280;11041;50.854;20.580;2023-02-19T02:44:57;98266.53;;;2.72;97.10
21760;BME280;11041;50.854;20.580;2023-02-19T02:47:55;98265.44;;;2.68;96.85
21760;BME280;11041;50.854;20.580;2023-02-19T02:50:31;98274.38;;;2.74;96.89
21760;BME280;11041;50.854;20.580;2023-02-19T02:53:07;98274.13;;;2.75;96.71
21760;BME280;11041;50.854;20.580;2023-02-19T02:55:56;98270.84;;;2.78;96.98
21760;BME280;11041;50.854;20.580;2023-02-19T02:58:27;98273.81;;;2.82;95.88
21760;BME280;11041;50.854;20.580;2023-02-19T03:01:04;98257.28;;;2.78;95.74
21760;BME280;11041;50.854;20.580;2023-02-19T03:03:58;98258.91;;;2.80;95.19
21760;BME280;11041;50.854;20.580;2023-02-19T03:06:33;98261.63;;;2.80;95.56
21760;BME280;11041;50.854;20.580;2023-02-19T03:09:32;98261.13;;;2.67;95.44
21760;BME280;11041;50.854;20.580;2023-02-19T03:12:13;98264.59;;;2.78;95.13
21760;BME280;11041;50.854;20.580;2023-02-19T03:15:06;98278.97;;;2.78;95.42
21760;BME280;11041;50.854;20.580;2023-02-19T03:18:01;98277.66;;;2.71;95.83
21760;BME280;11041;50.854;20.580;2023-02-19T03:20:52;98263.00;;;2.67;95.96
21760;BME280;11041;50.854;20.580;2023-02-19T03:23:27;98270.84;;;2.78;94.90
21760;BME280;11041;50.854;20.580;2023-02-19T03:26:16;98279.28;;;2.72;95.59
21760;BME280;11041;50.854;20.580;2023-02-19T03:28:48;98279.00;;;2.73;95.00
21760;BME280;11041;50.854;20.580;2023-02-19T03:31:37;98265.72;;;2.72;95.20
21760;BME280;11041;50.854;20.580;2023-02-19T03:34:13;98269.50;;;2.71;95.13
21760;BME280;11041;50.854;20.580;2023-02-19T03:36:52;98261.13;;;2.62;95.46
21760;BME280;11041;50.854;20.580;2023-02-19T03:39:22;98261.63;;;2.69;95.73
21760;BME280;11041;50.854;20.580;2023-02-19T03:42:04;98260.81;;;2.79;95.11
21760;BME280;11041;50.854;20.580;2023-02-19T03:44:48;98250.25;;;2.77;94.88
21760;BME280;11041;50.854;20.580;2023-02-19T03:47:28;98255.63;;;2.83;95.54
21760;BME280;11041;50.854;20.580;2023-02-19T03:50:22;98239.63;;;2.86;94.77
21760;BME280;11041;50.854;20.580;2023-02-19T03:53:11;98242.63;;;2.80;95.11
21760;BME280;11041;50.854;20.580;2023-02-19T03:59:00;98239.66;;;2.76;95.20
21760;BME280;11041;50.854;20.580;2023-02-19T04:01:39;98246.16;;;2.80;96.16
21760;BME280;11041;50.854;20.580;2023-02-19T04:04:33;98258.34;;;2.88;94.90
21760;BME280;11041;50.854;20.580;2023-02-19T04:07:02;98242.09;;;2.77;95.05
21760;BME280;11041;50.854;20.580;2023-02-19T04:09:35;98241.84;;;2.79;95.12
21760;BME280;11041;50.854;20.580;2023-02-19T04:12:05;98247.75;;;2.81;95.27
21760;BME280;11041;50.854;20.580;2023-02-19T04:14:53;98227.44;;;2.73;95.25
21760;BME280;11041;50.854;20.580;2023-02-19T04:17:37;98234.75;;;2.78;95.49
21760;BME280;11041;50.854;20.580;2023-02-19T04:20:09;98229.59;;;2.76;95.57
21760;BME280;11041;50.854;20.580;2023-02-19T04:22:39;98234.78;;;2.73;96.01
21760;BME280;11041;50.854;20.580;2023-02-19T04:25:07;98222.31;;;2.67;95.49
21760;BME280;11041;50.854;20.580;2023-02-19T04:27:44;98210.38;;;2.68;96.20
21760;BME280;11041;50.854;20.580;2023-02-19T04:30:13;98223.38;;;2.76;96.18
21760;BME280;11041;50.854;20.580;2023-02-19T04:32:40;98230.94;;;2.84;95.47
21760;BME280;11041;50.854;20.580;2023-02-19T04:35:06;98214.69;;;2.84;96.00
21760;BME280;11041;50.854;20.580;2023-02-19T04:37:33;98206.25;;;2.81;95.41
21760;BME280;11041;50.854;20.580;2023-02-19T04:39:59;98190.53;;;2.83;95.60
21760;BME280;11041;50.854;20.580;2023-02-19T04:42:26;98175.03;;;2.83;95.19
21760;BME280;11041;50.854;20.580;2023-02-19T04:44:54;98183.72;;;2.85;95.59
21760;BME280;11041;50.854;20.580;2023-02-19T04:47:21;98192.97;;;2.84;95.10
21760;BME280;11041;50.854;20.580;2023-02-19T04:49:47;98187.25;;;2.81;95.30
21760;BME280;11041;50.854;20.580;2023-02-19T04:52:14;98199.50;;;2.78;95.46
21760;BME280;11041;50.854;20.580;2023-02-19T04:54:40;98198.13;;;2.81;95.88
21760;BME280;11041;50.854;20.580;2023-02-19T04:57:07;98189.19;;;2.75;96.24
21760;BME280;11041;50.854;20.580;2023-02-19T04:59:33;98183.47;;;2.76;95.94
21760;BME280;11041;50.854;20.580;2023-02-19T05:02:00;98189.44;;;2.78;95.52
21760;BME280;11041;50.854;20.580;2023-02-19T05:04:26;98188.63;;;2.78;95.32
21760;BME280;11041;50.854;20.580;2023-02-19T05:06:53;98186.16;;;2.87;95.42
21760;BME280;11041;50.854;20.580;2023-02-19T05:09:19;98180.78;;;2.82;95.21
21760;BME280;11041;50.854;20.580;2023-02-19T05:11:46;98173.72;;;2.75;95.36
21760;BME280;11041;50.854;20.580;2023-02-19T05:14:12;98175.63;;;2.80;95.42
21760;BME280;11041;50.854;20.580;2023-02-19T05:16:39;98171.00;;;2.81;95.25
21760;BME280;11041;50.854;20.580;2023-02-19T05:19:05;98162.06;;;2.75;95.75
21760;BME280;11041;50.854;20.580;2023-02-19T05:21:32;98170.19;;;2.80;95.96
21760;BME280;11041;50.854;20.580;2023-02-19T05:23:58;98168.84;;;2.77;96.32
21760;BME280;11041;50.854;20.580;2023-02-19T05:26:25;98157.44;;;2.75;95.75
21760;BME280;11041;50.854;20.580;2023-02-19T05:28:52;98152.59;;;2.72;96.62
21760;BME280;11041;50.854;20.580;2023-02-19T05:31:20;98165.31;;;2.77;95.97
21760;BME280;11041;50.854;20.580;2023-02-19T05:33:47;98153.63;;;2.82;95.79
21760;BME280;11041;50.854;20.580;2023-02-19T05:36:18;98151.44;;;2.84;95.40
21760;BME280;11041;50.854;20.580;2023-02-19T05:38:45;98156.09;;;2.78;96.05
21760;BME280;11041;50.854;20.580;2023-02-19T05:41:16;98153.09;;;2.80;95.86
21760;BME280;11041;50.854;20.580;2023-02-19T05:43:46;98142.28;;;2.74;95.93
21760;BME280;11041;50.854;20.580;2023-02-19T05:46:17;98140.59;;;2.78;96.34
21760;BME280;11041;50.854;20.580;2023-02-19T05:48:46;98136.81;;;2.80;96.29
21760;BME280;11041;50.854;20.580;2023-02-19T05:51:17;98128.16;;;2.77;96.45
21760;BME280;11041;50.854;20.580;2023-02-19T05:53:45;98124.09;;;2.75;96.62
21760;BME280;11041;50.854;20.580;2023-02-19T05:56:40;98131.44;;;2.74;97.25
21760;BME280;11041;50.854;20.580;2023-02-19T05:59:19;98149.28;;;2.81;97.12
21760;BME280;11041;50.854;20.580;2023-02-19T06:01:48;98139.03;;;2.72;97.19
21760;BME280;11041;50.854;20.580;2023-02-19T06:04:15;98144.16;;;2.74;96.97
21760;BME280;11041;50.854;20.580;2023-02-19T06:06:45;98151.72;;;2.82;97.03
21760;BME280;11041;50.854;20.580;2023-02-19T06:09:12;98145.22;;;2.78;97.55
21760;BME280;11041;50.854;20.580;2023-02-19T06:11:39;98144.16;;;2.74;97.39
21760;BME280;11041;50.854;20.580;2023-02-19T06:14:06;98142.50;;;2.78;97.03
21760;BME280;11041;50.854;20.580;2023-02-19T06:16:32;98148.22;;;2.76;97.29
21760;BME280;11041;50.854;20.580;2023-02-19T06:19:03;98151.47;;;2.78;97.86
21760;BME280;11041;50.854;20.580;2023-02-19T06:21:29;98153.63;;;2.82;97.43
21760;BME280;11041;50.854;20.580;2023-02-19T06:23:56;98151.16;;;2.85;97.21
21760;BME280;11041;50.854;20.580;2023-02-19T06:26:24;98157.69;;;2.84;97.71
21760;BME280;11041;50.854;20.580;2023-02-19T06:28:52;98160.13;;;2.81;97.38
21760;BME280;11041;50.854;20.580;2023-02-19T06:31:21;98166.38;;;2.81;97.08
21760;BME280;11041;50.854;20.580;2023-02-19T06:33:48;98175.31;;;2.87;97.34
21760;BME280;11041;50.854;20.580;2023-02-19T06:36:19;98187.78;;;2.88;97.80
21760;BME280;11041;50.854;20.580;2023-02-19T06:38:46;98189.97;;;2.81;97.42
21760;BME280;11041;50.854;20.580;2023-02-19T06:41:13;98186.19;;;2.76;97.79
21760;BME280;11041;50.854;20.580;2023-02-19T06:43:40;98195.97;;;2.77;97.67
21760;BME280;11041;50.854;20.580;2023-02-19T06:46:10;98196.78;;;2.78;97.80
21760;BME280;11041;50.854;20.580;2023-02-19T06:48:41;98189.75;;;2.72;98.29
21760;BME280;11041;50.854;20.580;2023-02-19T06:51:13;98176.47;;;2.70;98.04
21760;BME280;11041;50.854;20.580;2023-02-19T06:53:40;98187.59;;;2.69;98.04
21760;BME280;11041;50.854;20.580;2023-02-19T06:56:29;98195.72;;;2.69;98.77
21760;BME280;11041;50.854;20.580;2023-02-19T06:58:59;98185.47;;;2.61;98.61
21760;BME280;11041;50.854;20.580;2023-02-19T07:01:29;98192.25;;;2.58;99.11
21760;BME280;11041;50.854;20.580;2023-02-19T07:03:57;98180.59;;;2.58;98.96
21760;BME280;11041;50.854;20.580;2023-02-19T07:06:26;98189.03;;;2.51;99.63
21760;BME280;11041;50.854;20.580;2023-02-19T07:08:54;98189.56;;;2.43;98.90
21760;BME280;11041;50.854;20.580;2023-02-19T07:11:22;98202.06;;;2.39;99.58
21760;BME280;11041;50.854;20.580;2023-02-19T07:14:00;98188.00;;;2.31;99.47
21760;BME280;11041;50.854;20.580;2023-02-19T07:16:28;98187.19;;;2.26;99.60
21760;BME280;11041;50.854;20.580;2023-02-19T07:18:59;98199.63;;;2.37;99.94
21760;BME280;11041;50.854;20.580;2023-02-19T07:21:27;98188.78;;;2.37;99.77
21760;BME280;11041;50.854;20.580;2023-02-19T07:23:55;98195.28;;;2.46;99.25
21760;BME280;11041;50.854;20.580;2023-02-19T07:26:23;98189.06;;;2.35;99.33
21760;BME280;11041;50.854;20.580;2023-02-19T07:28:50;98179.84;;;2.31;99.37
21760;BME280;11041;50.854;20.580;2023-02-19T07:31:20;98193.97;;;2.33;99.76
21760;BME280;11041;50.854;20.580;2023-02-19T07:33:48;98195.28;;;2.41;100.00
21760;BME280;11041;50.854;20.580;2023-02-19T07:36:16;98186.06;;;2.42;99.07
21760;BME280;11041;50.854;20.580;2023-02-19T07:38:44;98190.94;;;2.35;98.84
21760;BME280;11041;50.854;20.580;2023-02-19T07:41:12;98190.44;;;2.28;98.98
21760;BME280;11041;50.854;20.580;2023-02-19T07:43:39;98186.66;;;2.29;98.73
21760;BME280;11041;50.854;20.580;2023-02-19T07:46:10;98190.47;;;2.18;98.80
21760;BME280;11041;50.854;20.580;2023-02-19T07:48:39;98206.41;;;2.34;98.96
21760;BME280;11041;50.854;20.580;2023-02-19T07:51:11;98195.31;;;2.26;99.06
21760;BME280;11041;50.854;20.580;2023-02-19T07:53:38;98201.25;;;2.33;98.89
21760;BME280;11041;50.854;20.580;2023-02-19T07:56:06;98196.91;;;2.42;99.23
21760;BME280;11041;50.854;20.580;2023-02-19T07:58:34;98192.28;;;2.48;98.96
21760;BME280;11041;50.854;20.580;2023-02-19T08:04:13;98187.34;;;2.65;98.82
21760;BME280;11041;50.854;20.580;2023-02-19T08:06:41;98200.88;;;2.75;98.51
21760;BME280;11041;50.854;20.580;2023-02-19T08:09:08;98205.75;;;2.73;98.22
21760;BME280;11041;50.854;20.580;2023-02-19T08:11:35;98206.28;;;2.75;98.20
21760;BME280;11041;50.854;20.580;2023-02-19T08:14:23;98198.72;;;2.67;98.36
21760;BME280;11041;50.854;20.580;2023-02-19T08:16:51;98198.16;;;2.75;98.52
21760;BME280;11041;50.854;20.580;2023-02-19T08:19:19;98199.47;;;2.83;98.42
21760;BME280;11041;50.854;20.580;2023-02-19T08:21:45;98213.00;;;2.88;98.12
21760;BME280;11041;50.854;20.580;2023-02-19T08:24:12;98207.88;;;2.87;98.12
21760;BME280;11041;50.854;20.580;2023-02-19T08:26:39;98204.34;;;2.91;98.14
21760;BME280;11041;50.854;20.580;2023-02-19T08:29:05;98206.78;;;2.88;98.24
21760;BME280;11041;50.854;20.580;2023-02-19T08:31:33;98197.81;;;2.87;97.19
21760;BME280;11041;50.854;20.580;2023-02-19T08:34:00;98208.97;;;2.81;96.71
21760;BME280;11041;50.854;20.580;2023-02-19T08:36:26;98201.94;;;2.80;98.27
21760;BME280;11041;50.854;20.580;2023-02-19T08:38:53;98214.69;;;2.84;97.25
21760;BME280;11041;50.854;20.580;2023-02-19T08:41:20;98201.63;;;2.91;97.03
21760;BME280;11041;50.854;20.580;2023-02-19T08:43:46;98216.22;;;2.95;96.70
21760;BME280;11041;50.854;20.580;2023-02-19T08:46:13;98216.56;;;2.89;96.90
21760;BME280;11041;50.854;20.580;2023-02-19T08:48:39;98209.50;;;2.88;97.38
21760;BME280;11041;50.854;20.580;2023-02-19T08:51:09;98218.47;;;2.83;97.28
21760;BME280;11041;50.854;20.580;2023-02-19T08:53:38;98229.84;;;2.85;97.50
21760;BME280;11041;50.854;20.580;2023-02-19T08:56:13;98227.69;;;2.87;97.89
21760;BME280;11041;50.854;20.580;2023-02-19T08:58:41;98232.78;;;2.99;97.60
21760;BME280;11041;50.854;20.580;2023-02-19T09:01:14;98211.63;;;3.01;97.00
21760;BME280;11041;50.854;20.580;2023-02-19T09:03:42;98213.19;;;3.07;98.10
21760;BME280;11041;50.854;20.580;2023-02-19T09:06:20;98216.22;;;2.95;96.35
21760;BME280;11041;50.854;20.580;2023-02-19T09:08:47;98221.97;;;2.94;96.91
21760;BME280;11041;50.854;20.580;2023-02-19T09:11:14;98222.50;;;2.96;97.28
21760;BME280;11041;50.854;20.580;2023-02-19T09:13:42;98208.66;;;2.92;96.42
21760;BME280;11041;50.854;20.580;2023-02-19T09:16:10;98212.97;;;2.93;96.67
21760;BME280;11041;50.854;20.580;2023-02-19T09:18:37;98226.06;;;2.86;95.19
21760;BME280;11041;50.854;20.580;2023-02-19T09:21:05;98226.03;;;2.91;95.47
21760;BME280;11041;50.854;20.580;2023-02-19T09:23:36;98224.16;;;2.87;95.27
21760;BME280;11041;50.854;20.580;2023-02-19T09:26:04;98215.47;;;2.85;95.30
21760;BME280;11041;50.854;20.580;2023-02-19T09:28:34;98212.28;;;2.72;94.35
21760;BME280;11041;50.854;20.580;2023-02-19T09:31:06;98204.97;;;2.63;94.66
21760;BME280;11041;50.854;20.580;2023-02-19T09:33:33;98215.25;;;2.71;95.50
21760;BME280;11041;50.854;20.580;2023-02-19T09:36:00;98208.72;;;2.77;95.58
21760;BME280;11041;50.854;20.580;2023-02-19T09:38:28;98209.84;;;2.66;94.76
21760;BME280;11041;50.854;20.580;2023-02-19T09:41:05;98235.63;;;2.63;93.80
21760;BME280;11041;50.854;20.580;2023-02-19T09:43:34;98225.88;;;2.62;94.68
21760;BME280;11041;50.854;20.580;2023-02-19T09:46:10;98210.41;;;2.63;93.70
21760;BME280;11041;50.854;20.580;2023-02-19T09:48:42;98198.19;;;2.65;94.35
21760;BME280;11041;50.854;20.580;2023-02-19T09:51:11;98197.91;;;2.67;94.53
21760;BME280;11041;50.854;20.580;2023-02-19T09:53:45;98218.78;;;2.71;95.68
21760;BME280;11041;50.854;20.580;2023-02-19T09:56:16;98224.19;;;2.76;95.72
21760;BME280;11041;50.854;20.580;2023-02-19T09:58:49;98206.84;;;2.72;95.32
21760;BME280;11041;50.854;20.580;2023-02-19T10:01:17;98209.28;;;2.79;95.16
21760;BME280;11041;50.854;20.580;2023-02-19T10:03:47;98216.00;;;2.92;94.47
21760;BME280;11041;50.854;20.580;2023-02-19T10:06:25;98230.13;;;2.89;93.69
21760;BME280;11041;50.854;20.580;2023-02-19T10:09:21;98240.38;;;2.97;94.05
21760;BME280;11041;50.854;20.580;2023-02-19T10:11:51;98248.50;;;3.02;94.55
21760;BME280;11041;50.854;20.580;2023-02-19T10:17:03;98235.47;;;3.04;93.63
21760;BME280;11041;50.854;20.580;2023-02-19T10:19:35;98224.66;;;2.99;92.56
21760;BME280;11041;50.854;20.580;2023-02-19T10:22:03;98236.03;;;3.01;92.84
21760;BME280;11041;50.854;20.580;2023-02-19T10:24:30;98249.88;;;2.99;93.30
21760;BME280;11041;50.854;20.580;2023-02-19T10:26:57;98238.25;;;2.94;93.10
21760;BME280;11041;50.854;20.580;2023-02-19T10:29:24;98235.00;;;2.92;92.06
21760;BME280;11041;50.854;20.580;2023-02-19T10:32:19;98242.53;;;3.00;91.22
21760;BME280;11041;50.854;20.580;2023-02-19T10:35:09;98253.91;;;3.07;91.59
21760;BME280;11041;50.854;20.580;2023-02-19T10:37:51;98256.09;;;3.05;92.23
21760;BME280;11041;50.854;20.580;2023-02-19T10:40:25;98251.78;;;2.99;93.62
21760;BME280;11041;50.854;20.580;2023-02-19T10:43:00;98259.91;;;3.04;93.93
21760;BME280;11041;50.854;20.580;2023-02-19T10:45:48;98269.38;;;3.07;94.18
21760;BME280;11041;50.854;20.580;2023-02-19T10:48:52;98257.72;;;3.06;94.02
21760;BME280;11041;50.854;20.580;2023-02-19T10:51:45;98262.63;;;2.99;94.05
21760;BME280;11041;50.854;20.580;2023-02-19T10:54:38;98245.28;;;2.95;94.24
21760;BME280;11041;50.854;20.580;2023-02-19T10:57:30;98242.00;;;2.98;94.42
21760;BME280;11041;50.854;20.580;2023-02-19T11:00:27;98252.31;;;3.01;94.15
21760;BME280;11041;50.854;20.580;2023-02-19T11:03:21;98235.50;;;2.99;94.72
21760;BME280;11041;50.854;20.580;2023-02-19T11:06:17;98246.34;;;3.04;93.53
21760;BME280;11041;50.854;20.580;2023-02-19T11:09:39;98251.19;;;3.07;93.37
21760;BME280;11041;50.854;20.580;2023-02-19T11:12:34;98257.69;;;3.11;93.53
21760;BME280;11041;50.854;20.580;2023-02-19T11:15:32;98251.75;;;3.04;92.48
21760;BME280;11041;50.854;20.580;2023-02-19T11:18:35;98246.91;;;3.01;92.44
21760;BME280;11041;50.854;20.580;2023-02-19T11:21:29;98239.28;;;3.03;92.91
21760;BME280;11041;50.854;20.580;2023-02-19T11:24:33;98237.69;;;2.97;93.50
21760;BME280;11041;50.854;20.580;2023-02-19T11:54:09;98262.63;;;2.99;93.63
21760;BME280;11041;50.854;20.580;2023-02-19T11:56:41;98265.34;;;2.99;94.55
21760;BME280;11041;50.854;20.580;2023-02-19T11:59:29;98270.22;;;3.02;94.31
21760;BME280;11041;50.854;20.580;2023-02-19T12:02:32;98274.28;;;3.05;94.15
21760;BME280;11041;50.854;20.580;2023-02-19T12:15:01;98290.31;;;3.01;93.17
21760;BME280;11041;50.854;20.580;2023-02-19T12:26:58;98299.50;;;3.15;88.82
21760;BME280;11041;50.854;20.580;2023-02-19T12:33:03;98318.31;;;2.91;89.93
21760;BME280;11041;50.854;20.580;2023-02-19T12:38:53;98315.84;;;2.90;89.40
21760;BME280;11041;50.854;20.580;2023-02-19T12:41:53;98318.84;;;2.98;89.07
21760;BME280;11041;50.854;20.580;2023-02-19T12:47:01;98323.09;;;3.15;87.91
21760;BME280;11041;50.854;20.580;2023-02-19T12:49:39;98330.94;;;3.22;88.37
21760;BME280;11041;50.854;20.580;2023-02-19T12:52:35;98316.00;;;3.24;88.23
21760;BME280;11041;50.854;20.580;2023-02-19T12:55:38;98329.03;;;3.32;88.40
21760;BME280;11041;50.854;20.580;2023-02-19T12:58:13;98311.66;;;3.28;86.37
21760;BME280;11041;50.854;20.580;2023-02-19T13:00:52;98324.94;;;3.35;86.58
21760;BME280;11041;50.854;20.580;2023-02-19T13:03:50;98341.81;;;3.22;85.88
21760;BME280;11041;50.854;20.580;2023-02-19T13:07:03;98347.84;;;2.98;86.93
21760;BME280;11041;50.854;20.580;2023-02-19T13:10:30;98357.97;;;2.72;87.13
21760;BME280;11041;50.854;20.580;2023-02-19T13:12:38;98360.94;;;2.70;87.86
21760;BME280;11041;50.854;20.580;2023-02-19T13:17:51;98369.63;;;2.77;87.44
21760;BME280;11041;50.854;20.580;2023-02-19T13:20:34;98345.22;;;2.67;87.62
21760;BME280;11041;50.854;20.580;2023-02-19T13:23:25;98373.13;;;2.78;86.81
21760;BME280;11041;50.854;20.580;2023-02-19T13:32:47;98386.97;;;2.82;85.92
21760;BME280;11041;50.854;20.580;2023-02-19T13:38:12;98377.19;;;2.96;84.65
21760;BME280;11041;50.854;20.580;2023-02-19T13:40:41;98379.34;;;3.04;84.66
21760;BME280;11041;50.854;20.580;2023-02-19T13:43:32;98376.06;;;3.02;84.56
21760;BME280;11041;50.854;20.580;2023-02-19T13:46:08;98400.47;;;3.12;84.24
21760;BME280;11041;50.854;20.580;2023-02-19T13:48:39;98389.34;;;3.14;84.09
21760;BME280;11041;50.854;20.580;2023-02-19T13:59:35;98404.78;;;3.34;83.26
21760;BME280;11041;50.854;20.580;2023-02-19T14:09:44;98412.34;;;3.47;82.54
21760;BME280;11041;50.854;20.580;2023-02-19T14:14:51;98444.66;;;3.44;79.09
21760;BME280;11041;50.854;20.580;2023-02-19T14:23:14;98451.25;;;3.07;67.99
21760;BME280;11041;50.854;20.580;2023-02-19T14:25:51;98462.66;;;2.93;69.01
21760;BME280;11041;50.854;20.580;2023-02-19T14:28:51;98450.22;;;2.77;69.87
21760;BME280;11041;50.854;20.580;2023-02-19T14:31:25;98458.59;;;2.65;69.21
21760;BME280;11041;50.854;20.580;2023-02-19T14:34:23;98473.78;;;2.56;68.74
21760;BME280;11041;50.854;20.580;2023-02-19T14:36:56;98471.34;;;2.60;70.04
21760;BME280;11041;50.854;20.580;2023-02-19T14:39:32;98481.66;;;2.63;69.68
21760;BME280;11041;50.854;20.580;2023-02-19T14:42:11;98496.59;;;2.55;68.80
21760;BME280;11041;50.854;20.580;2023-02-19T14:45:08;98501.47;;;2.53;68.55
21760;BME280;11041;50.854;20.580;2023-02-19T14:47:36;98506.34;;;2.56;68.86
21760;BME280;11041;50.854;20.580;2023-02-19T14:50:12;98506.34;;;2.56;69.28
21760;BME280;11041;50.854;20.580;2023-02-19T14:52:50;98510.41;;;2.53;69.18
21760;BME280;11041;50.854;20.580;2023-02-19T14:55:28;98514.78;;;2.65;69.07
21760;BME280;11041;50.854;20.580;2023-02-19T14:58:02;98509.06;;;2.56;69.59
21760;BME280;11041;50.854;20.580;2023-02-19T15:00:37;98499.81;;;2.47;69.79
21760;BME280;11041;50.854;20.580;2023-02-19T15:03:06;98508.19;;;2.45;69.53
21760;BME280;11041;50.854;20.580;2023-02-19T15:05:56;98507.13;;;2.41;70.80
21760;BME280;11041;50.854;20.580;2023-02-19T15:08:37;98508.47;;;2.44;71.71
21760;BME280;11041;50.854;20.580;2023-02-19T15:11:14;98516.38;;;2.50;71.18
21760;BME280;11041;50.854;20.580;2023-02-19T15:13:45;98519.34;;;2.49;70.18
21760;BME280;11041;50.854;20.580;2023-02-19T15:16:19;98514.19;;;2.47;70.88
21760;BME280;11041;50.854;20.580;2023-02-19T15:18:48;98535.06;;;2.52;70.41
21760;BME280;11041;50.854;20.580;2023-02-19T15:21:29;98524.22;;;2.47;71.59
21760;BME280;11041;50.854;20.580;2023-02-19T15:24:01;98543.75;;;2.44;71.12
21760;BME280;11041;50.854;20.580;2023-02-19T15:26:37;98549.16;;;2.39;71.36
21760;BME280;11041;50.854;20.580;2023-02-19T15:29:15;98539.91;;;2.34;71.93
21760;BME280;11041;50.854;20.580;2023-02-19T15:31:59;98538.81;;;2.35;71.81